Minnetonka, MN (55305)

5:23 AM CDT on September 30, 2016 (GMT -0500)
Minnetonka/Hopkins | | Change Station
Active Advisory: Flood Warning

Elev 906 ft 44.95 °N, 93.41 °W | Updated 24 seconds ago

Clear
Clear
50.4 °F
Feels Like 50.4 °F
N
0.0
Wind Variable Wind from South
Gusts 0.0 mph

Today
High -- | Low -- °F
--% Chance of Precip.
Yesterday
High -- | Low -- °F
Precip. -- in
Pressure 30.36 in
Visibility 7.0 miles
Clouds Clear
Dew Point 50 °F
Humidity 99%
Rainfall 0.00 in
Snow Depth Not available.
7:11 AM 6:55 PM
Waning Crescent, 0% visible
METAR KFCM 300953Z AUTO 02004KT 7SM CLR 11/09 A3036 RMK AO2 SLP281 T01110094
Pressure 30.36 in
Visibility 7.0 miles
Clouds Clear
Dew Point 50 °F
Humidity 99%
Rainfall 0.00 in
Snow Depth Not available.
7:11 AM 6:55 PM
Waning Crescent, 0% visible
METAR KFCM 300953Z AUTO 02004KT 7SM CLR 11/09 A3036 RMK AO2 SLP281 T01110094

10-Day Weather Forecast

Almanac

Astronomy

Sep. 30, 2016 Rise Set
Actual Time
Civil Twilight
Nautical Twilight
Astronomical Twilight
Moon
Length of Visible Light
Length of Day
Tomorrow will be .
, % of the Moon is Illuminated

Today's Extremes

State Highs State Lows

Community

WunderPhotos

Upload Photos

1,942,687 photos uploaded!

WunderBlog® & News

Nearby

Air Quality

  Air Quality AQ Index Pollutant
Not available.

Snow Depth

Station Depth Elevation

Earthquake Activity

City Distance Mag. Time & Date
Minimum magnitude displayed is 2.5.

Coastal Water Temperatures

Place Temperature

Stations

Nearby Weather Stations

Station Location Temp. Windchill Dew Point Humidity Wind Precip. Elev Updated Type
                   

Watches & Warnings

Flood Warning
Issued: 8:33 PM CDT Sep. 29, 2016 – National Weather Service

The Flood Warning continues for
the Minnesota river at Savage.
* Until Thursday October 06.
* At 8:00 PM Thursday the stage was 702.0 feet.
* Minor flooding is forecast.
* Flood stage is 702.0 feet.
* Forecast... continue to rise above flood stage and reach near
703.7 feet by Sunday morning. The river will fall below
flood stage by Wednesday evening.
* Impact... at 702.0 feet... barge loading stops at Port Cargill, and
other flood prevention measures are begun. Water begins to impact
Black Dog Road in Burnsville.
* Impact... at 700.0 feet... flood waters begin to cover trails at Fort
Snelling State Park as well as low parts on the Bloomington Ferry
bridge trail just east of US 169.


Lat... Lon 4484 9348 4484 9330 4491 9322 4482 9312 4473 9342